Time;durP1;ratioP1;P1;durP2;ratioP2;P2;SDS_P1;SDS_P2;PMS_P1;PMS_P2;Temp;Humidity;BMP_temperature;BMP_pressure;BME280_temperature;BME280_humidity;BME280_pressure;Samples;Min_cycle;Max_cycle;Signal;HPM_P1;HPM_P2
2022/10/12 00:01:14;;;;;;;;;;;;;;;15.52;78.21;101475.97;5028857;28;1813;-57
2022/10/12 00:03:39;;;;;;;;;;;;;;;15.51;78.41;101471.56;5033305;28;1659;-57
2022/10/12 00:06:12;;;;;;;;;;;;;;;15.49;78.48;101466.34;5032408;28;1898;-56
2022/10/12 00:08:38;;;;;;;;;;;;;;;15.48;78.82;101472.97;5032208;28;1442;-57
2022/10/12 00:11:04;;;;;;;;;;;;;;;15.49;78.37;101471.84;5025970;28;2278;-58
2022/10/12 00:13:29;;;;;;;;;;;;;;;15.47;78.62;101474.09;5032740;28;1694;-57
2022/10/12 00:15:54;;;;;;;;;;;;;;;15.46;78.30;101480.72;5032763;28;1607;-56
2022/10/12 00:18:20;;;;;;;;;;;;;;;15.47;78.33;101467.75;5033010;28;1898;-56
2022/10/12 00:20:45;;;;;;;;;;;;;;;15.46;78.67;101479.91;5030645;28;1820;-59
2022/10/12 00:23:10;;;;;;;;;;;;;;;15.45;78.61;101473.56;5029141;28;1626;-57
2022/10/12 00:25:39;;;;;;;;;;;;;;;15.45;78.21;101465.28;5030542;28;1717;-57
2022/10/12 00:28:05;;;;;;;;;;;;;;;15.44;78.67;101458.13;5032109;28;1850;-59
2022/10/12 00:30:30;;;;;;;;;;;;;;;15.44;78.67;101469.16;5032155;28;1771;-58
2022/10/12 00:32:55;;;;;;;;;;;;;;;15.43;78.63;101467.50;5030424;28;1885;-58
2022/10/12 00:35:21;;;;;;;;;;;;;;;15.44;78.44;101474.66;5033025;28;1702;-57
2022/10/12 00:37:46;;;;;;;;;;;;;;;15.43;78.97;101472.19;5028477;28;1588;-57
2022/10/12 00:40:11;;;;;;;;;;;;;;;15.42;78.98;101473.31;5028864;28;1886;-57
2022/10/12 00:42:36;;;;;;;;;;;;;;;15.42;78.80;101470.53;5029066;28;1709;-56
2022/10/12 00:45:01;;;;;;;;;;;;;;;15.41;78.68;101463.38;5031669;28;1714;-57
2022/10/12 00:47:32;;;;;;;;;;;;;;;15.41;78.76;101468.91;5025192;28;1704;-56
2022/10/12 00:50:16;;;;;;;;;;;;;;;15.38;79.05;101470.31;5031501;28;1668;-58
2022/10/12 00:52:54;;;;;;;;;;;;;;;15.38;78.88;101469.50;5032146;28;1721;-56
2022/10/12 00:55:21;;;;;;;;;;;;;;;15.38;78.74;101463.97;5025377;28;1741;-57
2022/10/12 00:57:48;;;;;;;;;;;;;;;15.36;78.56;101468.94;5031868;28;1713;-58
2022/10/12 01:00:13;;;;;;;;;;;;;;;15.35;78.98;101465.38;5024019;28;1961;-57
2022/10/12 01:02:40;;;;;;;;;;;;;;;15.35;78.74;101470.06;5031452;28;1841;-58
2022/10/12 01:05:06;;;;;;;;;;;;;;;15.35;79.10;101475.56;5027029;28;1749;-57
2022/10/12 01:07:31;;;;;;;;;;;;;;;15.33;78.85;101469.53;5029108;28;1804;-57
2022/10/12 01:09:57;;;;;;;;;;;;;;;15.32;78.59;101474.22;5031606;28;1602;-58
2022/10/12 01:12:22;;;;;;;;;;;;;;;15.32;79.31;101476.16;5029959;28;1709;-57
2022/10/12 01:14:47;;;;;;;;;;;;;;;15.32;79.16;101473.38;5030388;28;1889;-58
2022/10/12 01:17:22;;;;;;;;;;;;;;;15.29;79.10;101469.28;5031173;28;1695;-58
2022/10/12 01:20:05;;;;;;;;;;;;;;;15.29;78.56;101469.28;5023212;28;1961;-57
2022/10/12 01:22:33;;;;;;;;;;;;;;;15.27;79.17;101474.25;5028493;28;1990;-58
2022/10/12 01:25:04;;;;;;;;;;;;;;;15.26;78.77;101467.09;5032298;28;1706;-56
2022/10/12 01:27:47;;;;;;;;;;;;;;;15.26;78.68;101471.78;5031357;28;1703;-57
2022/10/12 01:30:17;;;;;;;;;;;;;;;15.25;79.00;101475.66;5029799;28;1765;-57
2022/10/12 01:32:48;;;;;;;;;;;;;;;15.24;78.75;101465.72;5030902;28;1747;-57
2022/10/12 01:35:22;;;;;;;;;;;;;;;15.23;79.26;101473.19;5032592;28;1627;-57
2022/10/12 01:37:47;;;;;;;;;;;;;;;15.22;78.77;101470.72;5030376;28;1846;-58
2022/10/12 01:40:15;;;;;;;;;;;;;;;15.23;78.67;101469.59;5028941;28;2117;-56
2022/10/12 01:42:42;;;;;;;;;;;;;;;15.22;79.44;101471.56;5023573;28;1711;-57
2022/10/12 01:45:07;;;;;;;;;;;;;;;15.23;78.45;101473.19;5031076;28;1654;-56
2022/10/12 01:47:32;;;;;;;;;;;;;;;15.22;78.87;101468.81;5030505;28;1935;-57
2022/10/12 01:49:58;;;;;;;;;;;;;;;15.23;78.63;101464.06;5023855;28;1736;-58
2022/10/12 01:52:24;;;;;;;;;;;;;;;15.21;79.28;101461.63;5030849;28;2043;-56
2022/10/12 01:55:01;;;;;;;;;;;;;;;15.22;78.87;101460.53;5032965;28;1747;-57
2022/10/12 01:57:35;;;;;;;;;;;;;;;15.21;79.04;101458.88;5033520;28;1830;-56
2022/10/12 02:00:03;;;;;;;;;;;;;;;15.21;79.15;101452.53;5026464;28;1898;-56
2022/10/12 02:02:49;;;;;;;;;;;;;;;15.20;79.15;101450.88;5035840;28;1832;-57
2022/10/12 02:05:23;;;;;;;;;;;;;;;15.20;79.33;101454.47;5029155;28;1686;-57
2022/10/12 02:07:50;;;;;;;;;;;;;;;15.18;79.97;101451.16;5033755;28;1880;-57
2022/10/12 02:10:21;;;;;;;;;;;;;;;15.18;79.35;101442.06;5035885;28;1906;-56
2022/10/12 02:12:48;;;;;;;;;;;;;;;15.17;79.07;101444.00;5034192;28;1632;-59
2022/10/12 02:15:15;;;;;;;;;;;;;;;15.16;79.16;101445.09;5034603;28;1828;-56
2022/10/12 02:17:43;;;;;;;;;;;;;;;15.15;79.05;101443.47;5027702;28;1712;-58
2022/10/12 02:20:11;;;;;;;;;;;;;;;15.14;79.91;101437.13;5035520;28;1890;-58
2022/10/12 02:22:39;;;;;;;;;;;;;;;15.13;79.37;101435.50;5029201;28;1871;-58
2022/10/12 02:25:06;;;;;;;;;;;;;;;15.13;79.47;101437.44;5032769;28;1793;-57
2022/10/12 02:27:33;;;;;;;;;;;;;;;15.13;79.67;101442.94;5034230;28;2004;-57
2022/10/12 02:29:58;;;;;;;;;;;;;;;15.11;79.66;101428.63;5033121;28;1727;-57
2022/10/12 02:32:36;;;;;;;;;;;;;;;15.10;79.46;101438.81;5034730;28;1854;-58
2022/10/12 02:35:03;;;;;;;;;;;;;;;15.09;80.04;101437.16;5028239;28;1707;-57
2022/10/12 02:37:38;;;;;;;;;;;;;;;15.08;79.12;101429.19;5033198;28;1858;-58
2022/10/12 02:40:11;;;;;;;;;;;;;;;15.07;79.05;101427.53;5034478;28;1894;-58
2022/10/12 02:42:39;;;;;;;;;;;;;;;15.07;79.65;101422.00;5032292;28;1736;-57
2022/10/12 02:45:06;;;;;;;;;;;;;;;15.06;79.25;101429.47;5026514;28;1742;-57
2022/10/12 02:47:32;;;;;;;;;;;;;;;15.05;79.39;101425.09;5026652;28;1693;-56
2022/10/12 02:49:59;;;;;;;;;;;;;;;15.03;79.83;101416.28;5034767;28;1820;-57
2022/10/12 02:52:24;;;;;;;;;;;;;;;15.04;78.84;101417.09;5023468;28;1935;-56
2022/10/12 02:54:49;;;;;;;;;;;;;;;15.03;79.22;101426.47;5026459;28;1922;-56
2022/10/12 02:57:14;;;;;;;;;;;;;;;15.02;79.33;101424.81;5028006;28;1744;-56
2022/10/12 02:59:39;;;;;;;;;;;;;;;15.01;79.13;101417.66;5030689;28;1894;-56
2022/10/12 03:02:04;;;;;;;;;;;;;;;15.00;79.82;101422.34;5034236;28;1748;-57
2022/10/12 03:04:30;;;;;;;;;;;;;;;14.99;79.24;101412.44;5033900;28;1734;-57
2022/10/12 03:06:55;;;;;;;;;;;;;;;14.99;79.51;101414.34;5033489;28;1783;-56
2022/10/12 03:09:20;;;;;;;;;;;;;;;14.98;79.86;101409.94;5019827;28;1605;-57
2022/10/12 03:11:45;;;;;;;;;;;;;;;14.97;79.79;101411.88;5032910;28;1885;-57
2022/10/12 03:14:11;;;;;;;;;;;;;;;14.96;78.90;101415.78;5034359;28;1956;-59
2022/10/12 03:16:36;;;;;;;;;;;;;;;14.96;79.77;101409.44;5031672;28;1976;-58
2022/10/12 03:19:01;;;;;;;;;;;;;;;14.95;79.65;101411.38;5033871;28;1960;-58
2022/10/12 03:21:26;;;;;;;;;;;;;;;14.95;79.75;101410.56;5033752;28;2095;-57
2022/10/12 03:23:52;;;;;;;;;;;;;;;14.93;79.85;101413.59;5033775;28;1821;-58
2022/10/12 03:26:17;;;;;;;;;;;;;;;14.93;79.95;101410.84;5033417;28;1781;-57
2022/10/12 03:28:42;;;;;;;;;;;;;;;14.93;79.94;101412.75;5034029;28;1649;-58
2022/10/12 03:31:07;;;;;;;;;;;;;;;14.91;80.04;101403.94;5033402;28;1789;-56
2022/10/12 03:33:32;;;;;;;;;;;;;;;14.92;79.78;101409.19;5033532;28;1729;-57
2022/10/12 03:35:58;;;;;;;;;;;;;;;14.92;79.83;101405.59;5033346;28;1873;-56
2022/10/12 03:38:23;;;;;;;;;;;;;;;14.92;79.75;101405.59;5033955;28;1889;-56
2022/10/12 03:40:49;;;;;;;;;;;;;;;14.91;79.87;101393.75;5025153;28;1955;-57
2022/10/12 03:43:14;;;;;;;;;;;;;;;14.91;79.88;101390.16;5029982;28;2122;-57
2022/10/12 03:45:39;;;;;;;;;;;;;;;14.90;79.48;101391.28;5030162;28;1731;-57
2022/10/12 03:48:05;;;;;;;;;;;;;;;14.88;80.03;101388.81;5027908;28;1668;-57
2022/10/12 03:50:33;;;;;;;;;;;;;;;14.88;80.07;101386.06;5034001;28;1635;-57
2022/10/12 03:52:58;;;;;;;;;;;;;;;14.89;80.00;101389.63;5025554;28;2025;-58
2022/10/12 03:55:23;;;;;;;;;;;;;;;14.88;80.27;101388.00;5032279;28;1777;-57
2022/10/12 03:57:49;;;;;;;;;;;;;;;14.87;80.56;101381.66;5032612;28;2249;-58
2022/10/12 04:00:14;;;;;;;;;;;;;;;14.87;79.82;101391.88;5033818;28;1951;-58
2022/10/12 04:02:39;;;;;;;;;;;;;;;14.85;80.58;101386.63;5033449;28;1797;-57
2022/10/12 04:05:05;;;;;;;;;;;;;;;14.85;79.78;101386.63;5032978;28;1718;-59
2022/10/12 04:07:30;;;;;;;;;;;;;;;14.84;80.51;101387.75;5031880;28;1633;-56
2022/10/12 04:09:55;;;;;;;;;;;;;;;14.83;80.50;101391.59;5025924;28;1629;-57
2022/10/12 04:12:20;;;;;;;;;;;;;;;14.82;80.66;101384.44;5032549;28;1697;-57
2022/10/12 04:14:45;;;;;;;;;;;;;;;14.81;80.74;101387.47;5031691;28;1638;-57
2022/10/12 04:17:10;;;;;;;;;;;;;;;14.82;80.52;101381.69;5025965;28;1668;-56
2022/10/12 04:19:36;;;;;;;;;;;;;;;14.82;79.53;101383.63;5023801;28;1902;-58
2022/10/12 04:22:01;;;;;;;;;;;;;;;14.82;80.67;101383.63;5034168;28;1669;-56
2022/10/12 04:24:26;;;;;;;;;;;;;;;14.81;79.74;101384.72;5021687;28;1653;-56
2022/10/12 04:26:51;;;;;;;;;;;;;;;14.80;80.70;101378.38;5028520;28;2515;-58
2022/10/12 04:29:16;;;;;;;;;;;;;;;14.80;80.33;101385.88;5024596;28;1810;-56
2022/10/12 04:31:41;;;;;;;;;;;;;;;14.79;80.19;101379.53;5031449;28;1729;-58
2022/10/12 04:34:09;;;;;;;;;;;;;;;14.79;80.76;101374.00;5031381;28;1683;-57
2022/10/12 04:36:35;;;;;;;;;;;;;;;14.78;80.85;101366.84;5024256;28;1709;-57
2022/10/12 04:39:00;;;;;;;;;;;;;;;14.79;80.67;101370.44;5030179;28;1890;-58
2022/10/12 04:41:25;;;;;;;;;;;;;;;14.78;80.01;101369.59;5028028;28;1782;-59
2022/10/12 04:43:53;;;;;;;;;;;;;;;14.79;80.46;101374.00;5028535;28;1969;-56
2022/10/12 04:46:18;;;;;;;;;;;;;;;14.79;79.72;101373.19;5022551;28;1707;-58
2022/10/12 04:48:43;;;;;;;;;;;;;;;14.77;80.36;101377.06;5031786;28;1969;-56
2022/10/12 04:51:09;;;;;;;;;;;;;;;14.75;81.01;101382.03;5028994;28;1826;-57
2022/10/12 04:53:34;;;;;;;;;;;;;;;14.75;80.72;101378.44;5032105;28;1647;-58
2022/10/12 04:56:03;;;;;;;;;;;;;;;14.75;79.85;101376.50;5029425;28;2015;-57
2022/10/12 04:58:28;;;;;;;;;;;;;;;14.76;80.03;101382.84;5030091;28;1906;-58
2022/10/12 05:00:53;;;;;;;;;;;;;;;14.75;80.00;101383.94;5029765;28;1694;-56
2022/10/12 05:03:19;;;;;;;;;;;;;;;14.74;80.74;101385.88;5033306;28;1582;-57
2022/10/12 05:05:44;;;;;;;;;;;;;;;14.74;79.68;101382.31;5021153;28;1673;-58
2022/10/12 05:08:09;;;;;;;;;;;;;;;14.73;80.80;101384.22;5027024;28;1931;-57
2022/10/12 05:10:34;;;;;;;;;;;;;;;14.72;80.54;101385.34;5030723;28;1868;-57
2022/10/12 05:12:59;;;;;;;;;;;;;;;14.72;80.74;101373.50;5025222;28;1608;-60
2022/10/12 05:15:25;;;;;;;;;;;;;;;14.71;80.71;101380.97;5030914;28;1855;-57
2022/10/12 05:17:50;;;;;;;;;;;;;;;14.70;79.66;101376.56;5031859;28;1785;-56
2022/10/12 05:20:15;;;;;;;;;;;;;;;14.70;80.15;101373.81;5031650;28;1956;-58
2022/10/12 05:22:40;;;;;;;;;;;;;;;14.70;80.52;101373.81;5032223;28;1698;-56
2022/10/12 05:25:06;;;;;;;;;;;;;;;14.70;80.04;101370.22;5032155;28;1797;-56
2022/10/12 05:27:31;;;;;;;;;;;;;;;14.71;80.87;101371.88;5026747;28;1969;-57
2022/10/12 05:29:57;;;;;;;;;;;;;;;14.70;80.83;101367.47;5033115;28;2066;-58
2022/10/12 05:32:22;;;;;;;;;;;;;;;14.70;79.90;101365.53;5035890;28;1708;-56
2022/10/12 05:34:47;;;;;;;;;;;;;;;14.71;79.94;101363.59;5026250;28;1718;-57
2022/10/12 05:37:12;;;;;;;;;;;;;;;14.71;80.05;101375.44;5033339;28;1778;-56
2022/10/12 05:39:37;;;;;;;;;;;;;;;14.70;80.79;101367.47;5034277;28;1955;-57
2022/10/12 05:42:03;;;;;;;;;;;;;;;14.70;80.10;101371.03;5034919;28;1798;-56
2022/10/12 05:44:28;;;;;;;;;;;;;;;14.69;80.64;101366.63;5028165;28;1672;-56
2022/10/12 05:46:53;;;;;;;;;;;;;;;14.69;80.89;101361.13;5032107;28;1707;-58
2022/10/12 05:49:18;;;;;;;;;;;;;;;14.69;81.18;101363.06;5034883;28;1707;-57
2022/10/12 05:51:43;;;;;;;;;;;;;;;14.70;81.10;101368.28;5034452;28;1930;-58
2022/10/12 05:54:08;;;;;;;;;;;;;;;14.69;81.22;101363.88;5035887;28;1797;-56
2022/10/12 05:56:34;;;;;;;;;;;;;;;14.68;81.25;101358.66;5035524;28;1647;-57
2022/10/12 05:58:59;;;;;;;;;;;;;;;14.67;80.86;101360.59;5036411;28;1969;-56
2022/10/12 06:01:24;;;;;;;;;;;;;;;14.68;81.13;101364.16;5033563;28;1787;-57
2022/10/12 06:03:50;;;;;;;;;;;;;;;14.68;80.83;101362.25;5036502;28;1693;-56
2022/10/12 06:06:16;;;;;;;;;;;;;;;14.70;80.47;101349.00;5036256;28;926;-57
2022/10/12 06:08:41;;;;;;;;;;;;;;;14.71;80.47;101350.66;5036450;28;1776;-56
2022/10/12 06:11:06;;;;;;;;;;;;;;;14.71;81.33;101358.09;5026189;28;1816;-58
2022/10/12 06:13:32;;;;;;;;;;;;;;;14.72;81.26;101352.28;5033588;28;1977;-56
2022/10/12 06:15:57;;;;;;;;;;;;;;;14.90;81.13;101352.69;5032153;28;1699;-57
2022/10/12 06:18:22;;;;;;;;;;;;;;;12.57;77.14;101353.47;5026587;28;1898;-58
2022/10/12 06:20:49;;;;;;;;;;;;;;;13.47;78.36;101352.63;5035301;28;1875;-57
2022/10/12 06:23:15;;;;;;;;;;;;;;;14.17;78.05;101358.94;5029207;28;1978;-58
2022/10/12 06:25:40;;;;;;;;;;;;;;;14.61;77.65;101360.91;5034972;28;1584;-57
2022/10/12 06:28:05;;;;;;;;;;;;;;;14.98;76.69;101354.81;5026481;28;1771;-58
2022/10/12 06:30:30;;;;;;;;;;;;;;;15.21;76.77;101356.00;5032764;28;2048;-58
2022/10/12 06:32:55;;;;;;;;;;;;;;;15.39;76.09;101361.63;5033481;28;1971;-57
2022/10/12 06:35:20;;;;;;;;;;;;;;;15.29;72.62;101361.72;5033042;28;1960;-58
2022/10/12 06:37:49;;;;;;;;;;;;;;;14.64;73.52;101363.91;5031772;28;2021;-57
2022/10/12 06:40:15;;;;;;;;;;;;;;;15.28;74.89;101364.75;5025987;28;1894;-58
2022/10/12 06:42:40;;;;;;;;;;;;;;;15.54;73.78;101357.06;5033719;28;1897;-58
2022/10/12 06:45:06;;;;;;;;;;;;;;;15.70;74.04;101355.78;5033207;28;1941;-57
2022/10/12 06:47:31;;;;;;;;;;;;;;;15.81;74.01;101365.59;5028890;28;1699;-58
2022/10/12 06:49:56;;;;;;;;;;;;;;;15.91;74.01;101361.91;5033035;28;1869;-57
2022/10/12 06:52:21;;;;;;;;;;;;;;;15.95;74.28;101369.28;5027823;28;1538;-57
2022/10/12 06:54:47;;;;;;;;;;;;;;;15.99;74.10;101364.00;5032931;28;1687;-59
2022/10/12 06:57:12;;;;;;;;;;;;;;;16.05;74.41;101363.63;5026262;28;1748;-56
2022/10/12 06:59:37;;;;;;;;;;;;;;;16.13;74.06;101368.50;5035319;28;1894;-58
2022/10/12 07:02:02;;;;;;;;;;;;;;;16.21;74.32;101367.81;5034027;28;1660;-57
2022/10/12 07:04:27;;;;;;;;;;;;;;;16.26;73.91;101353.94;5034129;28;1887;-58
2022/10/12 07:06:52;;;;;;;;;;;;;;;16.31;74.17;101357.75;5027281;28;1642;-58
2022/10/12 07:09:18;;;;;;;;;;;;;;;16.33;74.28;101356.34;5035189;28;1210;-58
2022/10/12 07:11:43;;;;;;;;;;;;;;;16.36;74.13;101366.78;5035426;28;842;-57
2022/10/12 07:14:08;;;;;;;;;;;;;;;16.42;74.10;101359.22;5035184;28;858;-58
2022/10/12 07:16:33;;;;;;;;;;;;;;;16.48;73.99;101360.81;5033476;28;1859;-57
2022/10/12 07:18:58;;;;;;;;;;;;;;;16.56;73.59;101365.69;5031508;28;2169;-57
2022/10/12 07:21:23;;;;;;;;;;;;;;;16.59;74.02;101357.59;5027146;28;1553;-58
2022/10/12 07:23:49;;;;;;;;;;;;;;;16.64;73.44;101359.50;5024164;28;2194;-57
2022/10/12 07:26:14;;;;;;;;;;;;;;;16.70;73.50;101351.94;5030661;28;2034;-57
2022/10/12 07:28:39;;;;;;;;;;;;;;;16.82;73.08;101364.19;5025043;28;1801;-57
2022/10/12 07:31:06;;;;;;;;;;;;;;;16.95;73.77;101360.66;5032889;28;1709;-57
2022/10/12 07:33:34;;;;;;;;;;;;;;;17.06;73.80;101360.47;5030097;28;1955;-58
2022/10/12 07:36:00;;;;;;;;;;;;;;;17.17;72.62;101356.41;5026365;28;1664;-59
2022/10/12 07:38:26;;;;;;;;;;;;;;;17.26;73.00;101354.59;5030931;28;1936;-58
2022/10/12 07:40:51;;;;;;;;;;;;;;;17.28;73.40;101360.63;5033152;28;2017;-58
2022/10/12 07:43:16;;;;;;;;;;;;;;;17.34;73.29;101356.66;5028234;28;1717;-58
2022/10/12 07:45:42;;;;;;;;;;;;;;;17.40;72.64;101366.50;5027996;28;1931;-57
2022/10/12 07:48:07;;;;;;;;;;;;;;;17.47;73.63;101368.88;5033421;28;1878;-58
2022/10/12 07:50:32;;;;;;;;;;;;;;;17.52;73.04;101366.84;5032836;28;1820;-58
2022/10/12 07:52:57;;;;;;;;;;;;;;;17.57;72.27;101371.44;5029695;28;1534;-57
2022/10/12 07:55:22;;;;;;;;;;;;;;;17.62;72.99;101371.38;5023431;28;1717;-58
2022/10/12 07:57:48;;;;;;;;;;;;;;;17.65;72.99;101370.75;5030231;28;1885;-59
2022/10/12 08:00:13;;;;;;;;;;;;;;;17.68;73.25;101372.94;5030726;28;1906;-58
2022/10/12 08:02:38;;;;;;;;;;;;;;;17.66;72.83;101376.00;5029878;28;1764;-57
2022/10/12 08:05:04;;;;;;;;;;;;;;;17.67;72.36;101374.06;5025786;28;1646;-58
2022/10/12 08:07:29;;;;;;;;;;;;;;;17.71;72.27;101372.28;5031780;28;2008;-59
2022/10/12 08:09:54;;;;;;;;;;;;;;;17.73;73.54;101367.28;5026113;28;1691;-57
2022/10/12 08:12:19;;;;;;;;;;;;;;;17.77;72.80;101362.78;5028907;28;2090;-58
2022/10/12 08:14:44;;;;;;;;;;;;;;;17.79;73.57;101368.81;5029611;28;1882;-57
2022/10/12 08:17:09;;;;;;;;;;;;;;;17.83;73.65;101369.03;5031614;28;1785;-58
2022/10/12 08:19:35;;;;;;;;;;;;;;;17.88;72.58;101372.50;5032192;28;1894;-57
2022/10/12 08:22:00;;;;;;;;;;;;;;;17.91;73.78;101374.66;5022749;28;1927;-58
2022/10/12 08:24:25;;;;;;;;;;;;;;;17.95;73.10;101372.09;5031187;28;1821;-59
2022/10/12 08:26:50;;;;;;;;;;;;;;;17.97;73.43;101373.41;5024439;28;1828;-58
2022/10/12 08:29:15;;;;;;;;;;;;;;;18.01;72.48;101365.31;5030568;28;1832;-58
2022/10/12 08:31:40;;;;;;;;;;;;;;;18.06;73.57;101363.25;5030370;28;1800;-57
2022/10/12 08:34:05;;;;;;;;;;;;;;;18.11;72.28;101365.13;5025675;28;1946;-59
2022/10/12 08:36:31;;;;;;;;;;;;;;;18.12;73.52;101366.72;5030874;28;1829;-57
2022/10/12 08:38:56;;;;;;;;;;;;;;;18.13;72.23;101362.84;5031592;28;2275;-58
2022/10/12 08:41:24;;;;;;;;;;;;;;;18.17;72.17;101360.28;5030515;28;1824;-57
2022/10/12 08:43:55;;;;;;;;;;;;;;;18.18;73.50;101359.16;5031046;28;1750;-58
2022/10/12 08:46:22;;;;;;;;;;;;;;;18.12;72.77;101361.19;5031253;28;1800;-57
2022/10/12 08:49:07;;;;;;;;;;;;;;;18.22;72.71;101355.44;5032414;28;1783;-58
2022/10/12 08:51:38;;;;;;;;;;;;;;;18.25;72.52;101354.81;5024395;28;1952;-58
2022/10/12 08:54:07;;;;;;;;;;;;;;;18.26;71.98;101350.91;5030457;28;1804;-57
2022/10/12 08:56:38;;;;;;;;;;;;;;;18.27;72.89;101354.50;5023600;28;1707;-59
2022/10/12 08:59:03;;;;;;;;;;;;;;;18.27;72.69;101347.03;5032110;28;1902;-56
2022/10/12 09:01:37;;;;;;;;;;;;;;;18.29;72.45;101355.81;5029034;28;1653;-57
2022/10/12 09:04:10;;;;;;;;;;;;;;;18.30;71.84;101345.56;5032180;28;1568;-59
2022/10/12 09:06:44;;;;;;;;;;;;;;;18.30;72.65;101349.16;5018310;28;1759;-57
2022/10/12 09:09:25;;;;;;;;;;;;;;;18.30;73.40;101357.47;5031782;28;1700;-57
2022/10/12 09:11:56;;;;;;;;;;;;;;;18.30;72.11;101345.56;5020847;28;1610;-58
2022/10/12 09:14:25;;;;;;;;;;;;;;;18.31;73.29;101359.09;5026896;28;2184;-57
2022/10/12 09:16:53;;;;;;;;;;;;;;;18.30;72.09;101356.63;5016318;28;1474;-58
2022/10/12 09:19:19;;;;;;;;;;;;;;;18.11;71.71;101359.56;5021995;28;1967;-59
2022/10/12 09:21:46;;;;;;;;;;;;;;;17.87;72.52;101351.47;5030207;28;2065;-59
2022/10/12 09:24:17;;;;;;;;;;;;;;;17.94;72.27;101353.84;5029550;28;1857;-59
2022/10/12 09:26:43;;;;;;;;;;;;;;;18.08;71.66;101360.19;5027035;28;1926;-58
2022/10/12 09:29:21;;;;;;;;;;;;;;;18.14;72.21;101358.94;5030672;28;2014;-56
2022/10/12 09:32:04;;;;;;;;;;;;;;;18.22;71.65;101349.88;5031548;28;1863;-57
2022/10/12 09:34:30;;;;;;;;;;;;;;;18.25;72.14;101354.00;5031830;28;2042;-58
2022/10/12 09:36:55;;;;;;;;;;;;;;;18.26;71.69;101344.56;5022377;28;1987;-59
2022/10/12 09:39:23;;;;;;;;;;;;;;;18.25;71.37;101346.50;5027771;28;2265;-57
2022/10/12 09:41:48;;;;;;;;;;;;;;;18.29;71.42;101343.94;5027776;28;1931;-57
2022/10/12 09:44:30;;;;;;;;;;;;;;;18.30;72.49;101338.06;5032749;28;2083;-58
2022/10/12 09:46:59;;;;;;;;;;;;;;;18.32;71.44;101338.56;5020730;28;2090;-57
2022/10/12 09:49:40;;;;;;;;;;;;;;;18.32;72.83;101340.53;5031701;28;1802;-58
2022/10/12 09:52:05;;;;;;;;;;;;;;;18.34;71.69;101341.03;5025897;28;1854;-58
2022/10/12 09:54:31;;;;;;;;;;;;;;;18.34;71.43;101336.31;5029895;28;2250;-57
2022/10/12 09:56:57;;;;;;;;;;;;;;;18.32;71.34;101326.66;5027445;28;2018;-57
2022/10/12 09:59:25;;;;;;;;;;;;;;;18.33;72.69;101328.31;5024400;28;1902;-58
2022/10/12 10:02:16;;;;;;;;;;;;;;;18.33;72.38;101325.53;5016265;28;1455;-57
2022/10/12 10:04:43;;;;;;;;;;;;;;;18.34;72.62;101325.22;5021284;28;2425;-59
2022/10/12 10:07:13;;;;;;;;;;;;;;;18.36;71.61;101317.44;5027186;28;2029;-58
2022/10/12 10:09:38;;;;;;;;;;;;;;;18.39;71.76;101313.19;5028814;28;1884;-58
2022/10/12 10:12:22;;;;;;;;;;;;;;;18.34;72.08;101308.59;5031750;28;1795;-57
2022/10/12 10:14:48;;;;;;;;;;;;;;;18.08;71.07;101315.84;5026295;28;1830;-57
2022/10/12 10:17:23;;;;;;;;;;;;;;;18.24;71.51;101308.84;5025218;28;1797;-58
2022/10/12 10:19:49;;;;;;;;;;;;;;;18.36;71.42;101311.88;5030204;28;1967;-59
2022/10/12 10:22:15;;;;;;;;;;;;;;;18.39;72.27;101305.69;5035931;28;1624;-57
2022/10/12 10:24:40;;;;;;;;;;;;;;;18.40;71.22;101309.28;5021516;28;2114;-59
2022/10/12 10:27:06;;;;;;;;;;;;;;;18.42;71.88;101302.31;5034537;28;1769;-61
2022/10/12 10:29:31;;;;;;;;;;;;;;;18.42;71.44;101304.25;5034389;28;2049;-60
2022/10/12 10:32:11;;;;;;;;;;;;;;;18.43;71.28;101297.59;5034255;28;2130;-57
2022/10/12 10:34:37;;;;;;;;;;;;;;;18.45;71.95;101295.34;5031342;28;1914;-57
2022/10/12 10:37:03;;;;;;;;;;;;;;;18.47;71.48;101296.63;5026784;28;1971;-57
2022/10/12 10:39:35;;;;;;;;;;;;;;;18.48;71.54;101289.97;5033503;28;1982;-57
2022/10/12 10:42:30;;;;;;;;;;;;;;;18.52;71.98;101290.97;5033067;28;1830;-56
2022/10/12 10:44:57;;;;;;;;;;;;;;;18.56;72.82;101290.34;5021945;28;1803;-60
2022/10/12 10:47:22;;;;;;;;;;;;;;;18.57;72.13;101283.69;5029878;28;1956;-60
2022/10/12 10:49:50;;;;;;;;;;;;;;;18.58;71.76;101279.78;5031059;28;1850;-60
2022/10/12 10:52:18;;;;;;;;;;;;;;;18.57;72.48;101273.41;5034723;28;2276;-60
2022/10/12 10:54:44;;;;;;;;;;;;;;;18.58;71.71;101277.00;5031173;28;1798;-60
2022/10/12 10:57:12;;;;;;;;;;;;;;;18.57;71.68;101273.41;5027363;28;2324;-59
2022/10/12 10:59:53;;;;;;;;;;;;;;;16.99;65.13;101264.06;5030289;28;1882;-59
2022/10/12 11:02:21;;;;;;;;;;;;;;;16.64;70.12;101263.56;5034241;28;2143;-59
2022/10/12 11:04:49;;;;;;;;;;;;;;;17.38;69.77;101261.63;5031161;28;1832;-59
2022/10/12 11:07:21;;;;;;;;;;;;;;;17.76;68.64;101261.44;5034021;28;1812;-60
2022/10/12 11:09:49;;;;;;;;;;;;;;;17.95;69.79;101264.09;5031004;28;1830;-59
2022/10/12 11:12:20;;;;;;;;;;;;;;;18.04;70.21;101253.88;5027468;28;2242;-59
2022/10/12 11:14:47;;;;;;;;;;;;;;;18.08;70.67;101249.34;5032189;28;1891;-59
2022/10/12 11:17:17;;;;;;;;;;;;;;;18.11;69.84;101248.75;5033173;28;1963;-58
2022/10/12 11:19:48;;;;;;;;;;;;;;;18.12;69.91;101247.59;5034931;28;1893;-60
2022/10/12 11:22:20;;;;;;;;;;;;;;;18.13;70.53;101249.22;5035233;28;1579;-60
2022/10/12 11:24:48;;;;;;;;;;;;;;;18.15;70.71;101238.66;5035011;28;802;-61
2022/10/12 11:27:26;;;;;;;;;;;;;;;18.16;71.53;101237.53;5031846;28;1930;-59
2022/10/12 11:29:54;;;;;;;;;;;;;;;18.18;70.71;101234.44;5030707;28;2000;-60
2022/10/12 11:32:33;;;;;;;;;;;;;;;18.27;70.69;101219.53;5029584;28;2233;-61
2022/10/12 11:35:01;;;;;;;;;;;;;;;18.35;70.92;101226.28;5034580;28;1472;-60
2022/10/12 11:37:37;;;;;;;;;;;;;;;18.40;71.19;101223.38;5033861;28;1484;-59
2022/10/12 11:40:04;;;;;;;;;;;;;;;18.44;69.81;101210.53;5034773;28;1971;-60
2022/10/12 11:42:34;;;;;;;;;;;;;;;18.46;71.05;101211.00;5033003;28;2078;-60
2022/10/12 11:45:02;;;;;;;;;;;;;;;18.48;69.82;101214.28;5032720;28;2170;-60
2022/10/12 11:47:30;;;;;;;;;;;;;;;18.49;70.47;101210.38;5025104;28;2164;-60
2022/10/12 11:49:59;;;;;;;;;;;;;;;18.48;69.88;101203.19;5029209;28;2341;-59
2022/10/12 11:52:26;;;;;;;;;;;;;;;18.46;70.92;101203.50;5030166;28;1791;-60
2022/10/12 11:54:56;;;;;;;;;;;;;;;18.45;70.18;101198.31;5025416;28;1885;-60
2022/10/12 11:57:25;;;;;;;;;;;;;;;18.44;71.40;101197.47;5032104;28;2260;-60
2022/10/12 11:59:55;;;;;;;;;;;;;;;18.44;70.99;101196.66;5029348;28;2197;-59
2022/10/12 12:02:20;;;;;;;;;;;;;;;18.44;70.46;101185.56;5032630;28;2179;-60
2022/10/12 12:04:46;;;;;;;;;;;;;;;18.44;70.83;101189.16;5031779;28;2035;-57
2022/10/12 12:07:30;;;;;;;;;;;;;;;18.42;70.43;101194.19;5033253;28;1829;-57
2022/10/12 12:09:55;;;;;;;;;;;;;;;18.39;70.66;101191.22;5025692;28;1799;-58
2022/10/12 12:12:25;;;;;;;;;;;;;;;18.36;70.72;101176.06;5032199;28;2175;-57
2022/10/12 12:14:50;;;;;;;;;;;;;;;18.33;71.58;101178.66;5026199;28;1809;-57
2022/10/12 12:17:18;;;;;;;;;;;;;;;18.30;71.59;101176.50;5031582;28;2287;-58
2022/10/12 12:19:48;;;;;;;;;;;;;;;18.25;71.04;101171.09;5030978;28;1894;-60
2022/10/12 12:22:18;;;;;;;;;;;;;;;18.23;71.36;101163.09;5028168;28;1914;-59
2022/10/12 12:24:54;;;;;;;;;;;;;;;18.20;71.24;101177.59;5028883;28;1885;-58
2022/10/12 12:27:21;;;;;;;;;;;;;;;18.18;71.72;101168.78;5030663;28;2017;-58
2022/10/12 12:29:50;;;;;;;;;;;;;;;18.19;71.18;101166.81;5031763;28;1839;-58
2022/10/12 12:32:15;;;;;;;;;;;;;;;18.21;71.31;101172.84;5027594;28;1811;-58
2022/10/12 12:34:47;;;;;;;;;;;;;;;18.18;71.16;101159.63;5032489;28;1829;-57
2022/10/12 12:37:12;;;;;;;;;;;;;;;18.17;71.16;101156.03;5032614;28;2078;-56
2022/10/12 12:39:38;;;;;;;;;;;;;;;18.17;72.49;101144.16;5031867;28;1959;-60
2022/10/12 12:42:05;;;;;;;;;;;;;;;18.17;72.86;101147.72;5021452;28;2218;-59
2022/10/12 12:44:36;;;;;;;;;;;;;;;18.17;72.35;101149.69;5031742;28;1959;-57
2022/10/12 12:47:01;;;;;;;;;;;;;;;18.18;72.77;101143.84;5018500;28;1591;-57
2022/10/12 12:49:42;;;;;;;;;;;;;;;18.19;71.75;101151.00;5022761;28;1918;-57